createdAt,value
2018-07-06T00:00:25.140Z,14.38
2018-07-06T00:01:25.107Z,14.34
2018-07-06T00:02:25.232Z,14.43
2018-07-06T00:03:26.422Z,14.45
2018-07-06T00:04:25.144Z,14.4
2018-07-06T00:05:25.108Z,14.49
2018-07-06T00:06:25.095Z,14.45
2018-07-06T00:07:25.104Z,14.48
2018-07-06T00:08:25.102Z,14.48
2018-07-06T00:09:25.147Z,14.43
2018-07-06T00:10:25.111Z,14.43
2018-07-06T00:11:25.122Z,14.36
2018-07-06T00:12:25.733Z,14.34
2018-07-06T00:13:25.095Z,14.44
2018-07-06T00:14:25.124Z,14.34
2018-07-06T00:15:25.105Z,14.32
2018-07-06T00:16:25.099Z,14.31
2018-07-06T00:17:25.112Z,14.39
2018-07-06T00:18:25.100Z,14.39
2018-07-06T00:19:25.159Z,14.33
2018-07-06T00:20:25.105Z,14.31
2018-07-06T00:21:25.091Z,14.41
2018-07-06T00:22:25.095Z,14.34
2018-07-06T00:23:25.126Z,14.38
2018-07-06T00:24:25.132Z,14.33
2018-07-06T00:25:25.132Z,14.34
2018-07-06T00:26:25.105Z,14.36
2018-07-06T00:27:25.092Z,14.45
2018-07-06T00:28:25.099Z,14.42
2018-07-06T00:29:25.143Z,14.46
2018-07-06T00:30:25.141Z,14.41
2018-07-06T00:31:25.114Z,14.33
2018-07-06T00:32:25.073Z,14.3
2018-07-06T00:33:25.166Z,14.28
2018-07-06T00:34:25.168Z,14.4
2018-07-06T00:35:25.119Z,14.32
2018-07-06T00:36:25.146Z,14.38
2018-07-06T00:37:25.096Z,14.43
2018-07-06T00:38:25.107Z,14.39
2018-07-06T00:39:25.092Z,14.39
2018-07-06T00:40:25.127Z,14.44
2018-07-06T00:41:25.114Z,14.42
2018-07-06T00:42:25.108Z,14.5
2018-07-06T00:43:25.116Z,14.4
2018-07-06T00:44:25.109Z,14.4
2018-07-06T00:45:25.098Z,14.44
2018-07-06T00:46:25.212Z,14.47
2018-07-06T00:47:25.181Z,14.4
2018-07-06T00:48:25.148Z,14.49
2018-07-06T00:49:25.179Z,14.44
2018-07-06T00:50:25.077Z,14.35
2018-07-06T00:51:25.173Z,14.27
2018-07-06T00:52:25.089Z,14.27
2018-07-06T00:53:25.070Z,14.52
2018-07-06T00:54:25.106Z,14.39
2018-07-06T00:55:25.083Z,14.47
2018-07-06T00:56:25.170Z,14.45
2018-07-06T00:57:25.128Z,14.52
2018-07-06T00:58:25.096Z,14.47
2018-07-06T00:59:25.104Z,14.39
2018-07-06T01:00:25.164Z,14.51
2018-07-06T01:01:25.146Z,14.48
2018-07-06T01:02:25.114Z,14.5
2018-07-06T01:03:25.141Z,14.56
2018-07-06T01:04:25.218Z,14.52
2018-07-06T01:05:25.114Z,14.49
2018-07-06T01:06:25.084Z,14.53
2018-07-06T01:07:25.158Z,14.5
2018-07-06T01:08:25.137Z,14.48
2018-07-06T01:09:25.159Z,14.35
2018-07-06T01:10:25.125Z,14.49
2018-07-06T01:11:25.081Z,14.42
2018-07-06T01:12:25.090Z,14.51
2018-07-06T01:13:25.105Z,14.47
2018-07-06T01:14:25.084Z,14.42
2018-07-06T01:15:25.075Z,14.46
2018-07-06T01:16:25.095Z,14.34
2018-07-06T01:17:25.241Z,14.3
2018-07-06T01:18:25.086Z,14.47
2018-07-06T01:19:25.131Z,14.37
2018-07-06T01:20:25.089Z,14.34
2018-07-06T01:21:25.101Z,14.46
2018-07-06T01:22:25.107Z,14.36
2018-07-06T01:23:25.073Z,14.37
2018-07-06T01:24:25.106Z,14.33
2018-07-06T01:25:25.104Z,14.37
2018-07-06T01:26:25.072Z,14.51
2018-07-06T01:27:25.070Z,14.35
2018-07-06T01:28:25.435Z,14.35
2018-07-06T01:29:25.074Z,14.38
2018-07-06T01:30:25.104Z,14.34
2018-07-06T01:31:25.107Z,14.47
2018-07-06T01:32:25.128Z,14.38
2018-07-06T01:33:25.181Z,14.44
2018-07-06T01:34:25.105Z,14.39
2018-07-06T01:35:25.131Z,14.38
2018-07-06T01:36:25.074Z,14.41
2018-07-06T01:37:25.113Z,14.45
2018-07-06T01:38:25.073Z,14.56
2018-07-06T01:39:25.076Z,14.58
2018-07-06T01:40:25.084Z,14.52
2018-07-06T01:41:25.159Z,14.44
2018-07-06T01:42:25.227Z,14.51
2018-07-06T01:43:25.107Z,14.49
2018-07-06T01:44:25.068Z,14.48
2018-07-06T01:45:25.127Z,14.5
2018-07-06T01:46:25.103Z,14.44
2018-07-06T01:47:25.079Z,14.53
2018-07-06T01:48:25.093Z,14.57
2018-07-06T01:49:25.129Z,14.59
2018-07-06T01:50:25.076Z,14.59
2018-07-06T01:51:25.062Z,14.58
2018-07-06T01:52:25.063Z,14.62
2018-07-06T01:53:25.077Z,14.56
2018-07-06T01:54:25.097Z,14.57
2018-07-06T01:55:25.074Z,14.59
2018-07-06T01:56:25.081Z,14.54
2018-07-06T01:57:25.241Z,14.53
2018-07-06T01:58:25.160Z,14.51
2018-07-06T01:59:25.100Z,14.5
2018-07-06T02:00:25.280Z,14.54
2018-07-06T02:01:25.161Z,14.46
2018-07-06T02:02:25.055Z,14.57
2018-07-06T02:03:25.122Z,14.57
2018-07-06T02:04:25.137Z,14.47
2018-07-06T02:05:25.080Z,14.63
2018-07-06T02:06:25.063Z,14.58
2018-07-06T02:07:25.047Z,14.44
2018-07-06T02:08:25.269Z,14.65
2018-07-06T02:09:25.223Z,14.61
2018-07-06T02:10:25.107Z,14.52
2018-07-06T02:11:25.074Z,14.59
2018-07-06T02:12:25.055Z,14.53
2018-07-06T02:13:25.107Z,14.64
2018-07-06T02:14:25.131Z,14.62
2018-07-06T02:15:25.180Z,14.64
2018-07-06T02:16:25.126Z,14.66
2018-07-06T02:17:25.057Z,14.51
2018-07-06T02:18:25.211Z,14.56
2018-07-06T02:19:25.152Z,14.57
2018-07-06T02:20:25.068Z,14.57
2018-07-06T02:21:25.059Z,14.51
2018-07-06T02:22:25.064Z,14.58
2018-07-06T02:23:25.128Z,14.53
2018-07-06T02:24:25.147Z,14.6
2018-07-06T02:25:25.052Z,14.51
2018-07-06T02:26:25.104Z,14.44
2018-07-06T02:27:25.101Z,14.43
2018-07-06T02:28:25.111Z,14.39
2018-07-06T02:29:25.082Z,14.43
2018-07-06T02:30:25.140Z,14.51
2018-07-06T02:31:25.235Z,14.46
2018-07-06T02:32:25.062Z,14.51
2018-07-06T02:33:25.134Z,14.45
2018-07-06T02:34:25.108Z,14.49
2018-07-06T02:35:25.059Z,14.51
2018-07-06T02:36:25.062Z,14.5
2018-07-06T02:37:25.087Z,14.46
2018-07-06T02:38:25.084Z,14.61
2018-07-06T02:39:25.077Z,14.56
2018-07-06T02:40:25.074Z,14.55
2018-07-06T02:41:25.074Z,14.5
2018-07-06T02:42:25.059Z,14.62
2018-07-06T02:43:25.109Z,14.59
2018-07-06T02:44:25.089Z,14.63
2018-07-06T02:45:25.063Z,14.63
2018-07-06T02:46:25.082Z,14.59
2018-07-06T02:47:25.085Z,14.47
2018-07-06T02:48:25.072Z,14.61
2018-07-06T02:49:25.120Z,14.49
2018-07-06T02:50:25.107Z,14.53
2018-07-06T02:51:25.209Z,14.54
2018-07-06T02:52:25.081Z,14.62
2018-07-06T02:53:25.043Z,14.52
2018-07-06T02:54:25.136Z,14.49
2018-07-06T02:55:25.097Z,14.42
2018-07-06T02:56:25.709Z,14.63
2018-07-06T02:57:25.123Z,14.49
2018-07-06T02:58:25.144Z,14.39
2018-07-06T02:59:25.066Z,14.43
2018-07-06T03:00:25.082Z,14.62
2018-07-06T03:01:25.087Z,14.56
2018-07-06T03:02:25.104Z,14.51
2018-07-06T03:03:25.811Z,14.51
2018-07-06T03:04:25.361Z,14.53
2018-07-06T03:05:25.076Z,14.59
2018-07-06T03:06:25.101Z,14.62
2018-07-06T03:07:25.062Z,14.51
2018-07-06T03:08:25.100Z,14.55
2018-07-06T03:09:25.114Z,14.52
2018-07-06T03:10:25.090Z,14.51
2018-07-06T03:11:25.312Z,14.5
2018-07-06T03:12:25.119Z,14.48
2018-07-06T03:13:25.268Z,14.63
2018-07-06T03:14:25.133Z,14.63
2018-07-06T03:15:25.081Z,14.56
2018-07-06T03:16:25.083Z,14.61
2018-07-06T03:17:25.083Z,14.52
2018-07-06T03:18:25.100Z,14.47
2018-07-06T03:19:25.097Z,14.53
2018-07-06T03:20:25.258Z,14.5
2018-07-06T03:21:25.080Z,14.57
2018-07-06T03:22:25.094Z,14.63
2018-07-06T03:23:25.089Z,14.47
2018-07-06T03:24:25.066Z,14.54
2018-07-06T03:25:25.121Z,14.47
2018-07-06T03:26:25.180Z,14.54
2018-07-06T03:27:25.039Z,14.59
2018-07-06T03:28:26.668Z,14.56
2018-07-06T03:29:25.086Z,14.58
2018-07-06T03:30:25.062Z,14.59
2018-07-06T03:31:25.118Z,14.55
2018-07-06T03:32:25.047Z,14.62
2018-07-06T03:33:25.074Z,14.54
2018-07-06T03:34:25.107Z,14.5
2018-07-06T03:35:25.140Z,14.49
2018-07-06T03:36:25.064Z,14.44
2018-07-06T03:37:25.245Z,14.54
2018-07-06T03:38:25.044Z,14.52
2018-07-06T03:39:25.161Z,14.52
2018-07-06T03:40:25.121Z,14.55
2018-07-06T03:41:25.086Z,14.56
2018-07-06T03:42:25.276Z,14.46
2018-07-06T03:43:25.028Z,14.54
2018-07-06T03:44:25.036Z,14.5
2018-07-06T03:45:25.108Z,14.51
2018-07-06T03:46:25.071Z,14.44
2018-07-06T03:47:25.052Z,14.44
2018-07-06T03:48:25.036Z,14.59
2018-07-06T03:49:27.174Z,14.56
2018-07-06T03:50:25.090Z,14.59
2018-07-06T03:51:25.066Z,14.55
2018-07-06T03:52:25.048Z,14.5
2018-07-06T03:53:25.075Z,14.43
2018-07-06T03:54:25.081Z,14.53
2018-07-06T03:55:25.031Z,14.48
2018-07-06T03:56:25.066Z,14.63
2018-07-06T03:57:25.079Z,14.66
2018-07-06T03:58:25.060Z,14.59
2018-07-06T03:59:25.077Z,14.62
2018-07-06T04:00:25.094Z,14.5
2018-07-06T04:01:25.015Z,14.56
2018-07-06T04:02:25.024Z,14.63
2018-07-06T04:03:25.087Z,14.57
2018-07-06T04:04:25.084Z,14.62
2018-07-06T04:05:25.070Z,14.55
2018-07-06T04:06:25.024Z,14.59
2018-07-06T04:07:25.207Z,14.56
2018-07-06T04:08:25.103Z,14.53
2018-07-06T04:09:25.077Z,14.61
2018-07-06T04:10:25.147Z,14.6
2018-07-06T04:11:25.034Z,14.55
2018-07-06T04:12:25.232Z,14.52
2018-07-06T04:13:25.064Z,14.67
2018-07-06T04:14:25.054Z,14.55
2018-07-06T04:15:25.202Z,14.62
2018-07-06T04:16:25.079Z,14.65
2018-07-06T04:17:25.155Z,14.58
2018-07-06T04:18:25.094Z,14.59
2018-07-06T04:19:25.099Z,14.66
2018-07-06T04:20:25.093Z,14.64
2018-07-06T04:21:25.070Z,14.66
2018-07-06T04:22:25.014Z,14.58
2018-07-06T04:23:25.124Z,14.52
2018-07-06T04:24:25.065Z,14.64
2018-07-06T04:25:25.109Z,14.65
2018-07-06T04:26:25.386Z,14.61
2018-07-06T04:27:25.076Z,14.55
2018-07-06T04:28:25.081Z,14.66
2018-07-06T04:29:25.059Z,14.69
2018-07-06T04:30:25.101Z,14.56
2018-07-06T04:31:25.038Z,14.56
2018-07-06T04:32:25.084Z,14.58
2018-07-06T04:33:25.069Z,14.62
2018-07-06T04:34:25.098Z,14.57
2018-07-06T04:35:25.087Z,14.6
2018-07-06T04:36:25.073Z,14.65
2018-07-06T04:37:25.098Z,14.58
2018-07-06T04:38:25.018Z,14.58
2018-07-06T04:39:25.036Z,14.68
2018-07-06T04:40:25.101Z,14.66
2018-07-06T04:41:25.109Z,14.64
2018-07-06T04:42:25.093Z,14.61
2018-07-06T04:43:25.102Z,14.58
2018-07-06T04:44:25.045Z,14.67
2018-07-06T04:45:25.211Z,14.65
2018-07-06T04:46:25.035Z,14.64
2018-07-06T04:47:25.024Z,14.61
2018-07-06T04:48:25.063Z,14.66
2018-07-06T04:49:25.139Z,14.73
2018-07-06T04:50:25.076Z,14.67
2018-07-06T04:51:25.034Z,14.73
2018-07-06T04:52:25.042Z,14.77
2018-07-06T04:53:25.183Z,14.76
2018-07-06T04:54:25.107Z,14.75
2018-07-06T04:55:25.031Z,14.75
2018-07-06T04:56:25.016Z,14.72
2018-07-06T04:57:25.021Z,14.71
2018-07-06T04:58:25.063Z,14.75
2018-07-06T04:59:25.076Z,14.71
2018-07-06T05:00:25.042Z,14.75
2018-07-06T05:01:25.024Z,14.78
2018-07-06T05:02:25.069Z,14.71
2018-07-06T05:03:25.088Z,14.73
2018-07-06T05:04:25.042Z,14.82
2018-07-06T05:05:25.067Z,14.84
2018-07-06T05:06:25.040Z,14.72
2018-07-06T05:07:25.028Z,14.74
2018-07-06T05:08:25.213Z,14.68
2018-07-06T05:09:25.075Z,14.83
2018-07-06T05:10:25.052Z,14.81
2018-07-06T05:11:25.067Z,14.84
2018-07-06T05:12:24.987Z,14.81
2018-07-06T05:13:25.021Z,14.79
2018-07-06T05:14:25.005Z,14.82
2018-07-06T05:15:25.078Z,14.86
2018-07-06T05:16:25.104Z,14.82
2018-07-06T05:17:25.042Z,14.89
2018-07-06T05:18:25.034Z,14.92
2018-07-06T05:19:25.072Z,14.79
2018-07-06T05:20:25.064Z,14.84
2018-07-06T05:21:25.117Z,14.9
2018-07-06T05:22:25.034Z,14.9
2018-07-06T05:23:25.068Z,14.87
2018-07-06T05:24:25.039Z,14.87
2018-07-06T05:25:25.170Z,14.93
2018-07-06T05:26:25.046Z,14.93
2018-07-06T05:27:25.048Z,14.98
2018-07-06T05:28:25.054Z,14.98
2018-07-06T05:29:25.133Z,14.98
2018-07-06T05:30:25.139Z,14.97
2018-07-06T05:31:25.044Z,15
2018-07-06T05:32:25.129Z,15
2018-07-06T05:33:25.046Z,15
2018-07-06T05:34:25.093Z,14.95
2018-07-06T05:35:25.028Z,14.99
2018-07-06T05:36:25.020Z,14.99
2018-07-06T05:37:25.065Z,14.96
2018-07-06T05:38:25.060Z,14.99
2018-07-06T05:39:25.069Z,15.03
2018-07-06T05:40:25.065Z,15.06
2018-07-06T05:41:25.090Z,14.97
2018-07-06T05:42:25.083Z,14.96
2018-07-06T05:43:25.306Z,15
2018-07-06T05:44:25.144Z,15.02
2018-07-06T05:45:25.010Z,15.04
2018-07-06T05:46:25.759Z,15
2018-07-06T05:47:25.272Z,15.03
2018-07-06T05:48:25.138Z,14.97
2018-07-06T05:49:24.996Z,15.04
2018-07-06T05:50:25.019Z,15.06
2018-07-06T05:51:25.077Z,15.04
2018-07-06T05:52:25.096Z,15.13
2018-07-06T05:53:25.225Z,15.17
2018-07-06T05:54:25.102Z,15.13
2018-07-06T05:55:25.030Z,15.15
2018-07-06T05:56:24.990Z,15.12
2018-07-06T05:57:25.114Z,15.13
2018-07-06T05:58:25.044Z,15.19
2018-07-06T05:59:25.106Z,15.1
2018-07-06T06:00:25.029Z,15.08
2018-07-06T06:01:25.046Z,15.11
2018-07-06T06:02:25.090Z,15.16
2018-07-06T06:03:25.187Z,15.08
2018-07-06T06:04:25.069Z,15.03
2018-07-06T06:05:24.995Z,15.06
2018-07-06T06:06:25.126Z,15.04
2018-07-06T06:07:25.062Z,15.13
2018-07-06T06:08:25.007Z,15.07
2018-07-06T06:09:25.074Z,15.22
2018-07-06T06:10:25.057Z,15.09
2018-07-06T06:11:25.212Z,15.03
2018-07-06T06:12:25.165Z,15
2018-07-06T06:13:25.412Z,14.99
2018-07-06T06:14:25.458Z,14.98
2018-07-06T06:15:25.218Z,14.83
2018-07-06T06:16:25.319Z,14.83
2018-07-06T06:17:25.013Z,14.84
2018-07-06T06:18:25.455Z,14.82
2018-07-06T06:19:25.004Z,14.77
2018-07-06T06:20:25.003Z,14.79
2018-07-06T06:21:25.013Z,14.77
2018-07-06T06:22:24.989Z,14.79
2018-07-06T06:23:25.011Z,14.77
2018-07-06T06:24:24.995Z,14.83
2018-07-06T06:25:25.040Z,14.77
2018-07-06T06:26:24.976Z,14.65
2018-07-06T06:27:25.126Z,14.7
2018-07-06T06:28:25.101Z,14.66
2018-07-06T06:29:25.112Z,14.68
2018-07-06T06:30:25.065Z,14.69
2018-07-06T06:31:25.077Z,14.68
2018-07-06T06:32:25.014Z,14.72
2018-07-06T06:33:27.068Z,14.75
2018-07-06T06:34:25.157Z,14.62
2018-07-06T06:35:25.067Z,14.63
2018-07-06T06:36:25.203Z,14.61
2018-07-06T06:37:25.123Z,14.67
2018-07-06T06:38:25.118Z,14.61
2018-07-06T06:39:25.248Z,14.74
2018-07-06T06:40:25.122Z,14.76
2018-07-06T06:41:25.015Z,14.71
2018-07-06T06:42:25.110Z,14.76
2018-07-06T06:43:25.205Z,14.7
2018-07-06T06:44:25.035Z,14.74
2018-07-06T06:45:25.319Z,14.74
2018-07-06T06:46:25.078Z,14.75
2018-07-06T06:47:25.056Z,14.68
2018-07-06T06:48:25.090Z,14.67
2018-07-06T06:49:25.134Z,14.71
2018-07-06T06:50:25.175Z,14.67
2018-07-06T06:51:25.001Z,14.72
2018-07-06T06:52:25.062Z,14.69
2018-07-06T06:53:25.171Z,14.73
2018-07-06T06:54:25.108Z,14.79
2018-07-06T06:55:24.999Z,14.78
2018-07-06T06:56:25.078Z,14.79
2018-07-06T06:57:25.196Z,14.76
2018-07-06T06:58:24.996Z,14.79
2018-07-06T06:59:25.168Z,14.79
2018-07-06T07:00:28.122Z,14.76
2018-07-06T07:01:25.251Z,14.71
2018-07-06T07:02:25.119Z,14.71
2018-07-06T07:03:25.153Z,14.76
2018-07-06T07:04:25.101Z,14.77
2018-07-06T07:05:25.075Z,14.7
2018-07-06T07:06:25.108Z,14.7
2018-07-06T07:07:25.829Z,14.66
2018-07-06T07:08:26.151Z,14.7
2018-07-06T07:09:25.176Z,14.74
2018-07-06T07:10:25.152Z,14.69
2018-07-06T07:11:25.098Z,14.67
2018-07-06T07:12:25.052Z,14.61
2018-07-06T07:13:25.058Z,14.56
2018-07-06T07:14:25.204Z,14.6
2018-07-06T07:15:25.116Z,14.59
2018-07-06T07:16:25.116Z,14.58
2018-07-06T07:17:25.017Z,14.61
2018-07-06T07:18:24.998Z,14.61
2018-07-06T07:19:25.084Z,14.61
2018-07-06T07:20:25.007Z,14.44
2018-07-06T07:21:25.012Z,14.43
2018-07-06T07:22:24.997Z,14.37
2018-07-06T07:23:26.145Z,14.39
2018-07-06T07:24:25.080Z,14.19
2018-07-06T07:25:24.948Z,14.2
2018-07-06T07:26:24.986Z,14.24
2018-07-06T07:27:25.103Z,14.34
2018-07-06T07:28:25.103Z,14.28
2018-07-06T07:29:25.008Z,14.25
2018-07-06T07:30:24.977Z,14.27
2018-07-06T07:31:25.012Z,14.33
2018-07-06T07:32:25.060Z,14.4
2018-07-06T07:33:24.998Z,14.44
2018-07-06T07:34:25.086Z,14.31
2018-07-06T07:35:25.012Z,14.33
2018-07-06T07:36:25.455Z,14.22
2018-07-06T07:37:25.042Z,14.23
2018-07-06T07:38:24.962Z,14.27
2018-07-06T07:39:25.146Z,14.25
2018-07-06T07:40:24.996Z,14.18
2018-07-06T07:41:25.053Z,14.14
2018-07-06T07:42:25.113Z,14.18
2018-07-06T07:43:24.997Z,14
2018-07-06T07:44:25.069Z,13.96
2018-07-06T07:45:25.186Z,13.99
2018-07-06T07:46:25.368Z,14
2018-07-06T07:47:25.055Z,14.01
2018-07-06T07:48:25.040Z,14.02
2018-07-06T07:49:25.098Z,14.01
2018-07-06T07:50:25.518Z,14.07
2018-07-06T07:51:24.983Z,13.93
2018-07-06T07:52:25.382Z,13.92
2018-07-06T07:53:26.498Z,13.94
2018-07-06T07:54:25.335Z,14
2018-07-06T07:55:25.091Z,14.04
2018-07-06T07:56:25.024Z,14.12
2018-07-06T07:57:25.105Z,14
2018-07-06T07:58:25.060Z,13.88
2018-07-06T07:59:25.052Z,13.85
2018-07-06T08:00:26.125Z,13.95
2018-07-06T08:01:26.426Z,13.85
2018-07-06T08:02:25.094Z,13.76
2018-07-06T08:03:25.076Z,13.74
2018-07-06T08:04:25.144Z,13.78
2018-07-06T08:05:25.016Z,13.8
2018-07-06T08:06:25.108Z,13.66
2018-07-06T08:07:24.951Z,13.71
2018-07-06T08:08:25.050Z,13.77
2018-07-06T08:09:25.053Z,13.64
2018-07-06T08:10:25.134Z,13.64
2018-07-06T08:11:25.030Z,13.69
2018-07-06T08:12:24.968Z,13.83
2018-07-06T08:13:25.083Z,13.73
2018-07-06T08:14:25.549Z,13.7
2018-07-06T08:15:25.057Z,13.68
2018-07-06T08:16:25.099Z,13.61
2018-07-06T08:17:24.964Z,13.57
2018-07-06T08:18:25.480Z,13.54
2018-07-06T08:19:25.096Z,13.63
2018-07-06T08:20:25.071Z,13.64
2018-07-06T08:21:25.267Z,13.75
2018-07-06T08:22:25.055Z,13.64
2018-07-06T08:23:25.010Z,13.63
2018-07-06T08:24:25.080Z,13.56
2018-07-06T08:25:25.210Z,13.51
2018-07-06T08:26:25.007Z,13.49
2018-07-06T08:27:25.019Z,13.53
2018-07-06T08:28:25.122Z,13.66
2018-07-06T08:29:25.212Z,13.66
2018-07-06T08:30:25.598Z,13.76
2018-07-06T08:31:25.158Z,13.65
2018-07-06T08:32:25.045Z,13.76
2018-07-06T08:33:24.955Z,13.84
2018-07-06T08:34:24.959Z,13.82
2018-07-06T08:35:24.949Z,13.79
2018-07-06T08:36:25.218Z,13.77
2018-07-06T08:37:25.079Z,13.72
2018-07-06T08:38:24.939Z,13.95
2018-07-06T08:39:25.248Z,14.03
2018-07-06T08:40:25.006Z,14.11
2018-07-06T08:41:24.943Z,14.03
2018-07-06T08:42:24.970Z,13.96
2018-07-06T08:43:24.987Z,13.97
2018-07-06T08:44:24.983Z,14
2018-07-06T08:45:24.958Z,13.84
2018-07-06T08:46:24.974Z,13.82
2018-07-06T08:47:24.965Z,13.8
2018-07-06T08:48:25.055Z,13.81
2018-07-06T08:49:25.132Z,13.8
2018-07-06T08:50:25.459Z,13.89
2018-07-06T08:51:25.646Z,13.8
2018-07-06T08:52:25.145Z,13.76
2018-07-06T08:53:24.985Z,13.83
2018-07-06T08:54:25.092Z,13.77
2018-07-06T08:55:25.065Z,13.76
2018-07-06T08:56:25.084Z,13.6
2018-07-06T08:57:25.178Z,13.42
2018-07-06T08:58:25.433Z,13.53
2018-07-06T08:59:24.955Z,13.52
2018-07-06T09:00:25.064Z,13.44
2018-07-06T09:01:25.084Z,13.4
2018-07-06T09:02:24.976Z,13.15
2018-07-06T09:03:25.093Z,13.38
2018-07-06T09:04:27.478Z,13.36
2018-07-06T09:05:25.140Z,13.55
2018-07-06T09:06:25.280Z,13.45
2018-07-06T09:07:24.950Z,13.47
2018-07-06T09:08:25.615Z,13.47
2018-07-06T09:09:25.351Z,13.42
2018-07-06T09:10:25.610Z,13.29
2018-07-06T09:11:25.278Z,13.11
2018-07-06T09:12:25.130Z,13.03
2018-07-06T09:13:24.993Z,12.99
2018-07-06T09:14:25.204Z,12.93
2018-07-06T09:15:25.121Z,12.81
2018-07-06T09:16:24.942Z,12.76
2018-07-06T09:17:25.013Z,12.9
2018-07-06T09:18:24.964Z,12.59
2018-07-06T09:19:25.446Z,12.77
2018-07-06T09:20:25.143Z,12.62
2018-07-06T09:21:25.110Z,12.63
2018-07-06T09:22:24.978Z,12.69
2018-07-06T09:23:25.065Z,12.69
2018-07-06T09:24:25.107Z,12.71
2018-07-06T09:25:26.967Z,12.74
2018-07-06T09:26:25.246Z,12.62
2018-07-06T09:27:24.984Z,12.65
2018-07-06T09:28:24.950Z,12.68
2018-07-06T09:29:25.061Z,12.82
2018-07-06T09:30:25.102Z,12.83
2018-07-06T09:31:25.169Z,12.79
2018-07-06T09:32:25.275Z,12.66
2018-07-06T09:33:25.423Z,12.72
2018-07-06T09:34:24.935Z,12.79
2018-07-06T09:35:25.127Z,12.46
2018-07-06T09:36:24.944Z,12.33
2018-07-06T09:37:25.070Z,12.23
2018-07-06T09:38:24.983Z,12.08
2018-07-06T09:39:25.048Z,12.15
2018-07-06T09:40:24.947Z,12.11
2018-07-06T09:41:25.075Z,12.22
2018-07-06T09:42:25.078Z,12.4
2018-07-06T09:43:25.599Z,12.63
2018-07-06T09:44:24.997Z,12.72
2018-07-06T09:45:24.937Z,12.69
2018-07-06T09:46:24.917Z,12.63
2018-07-06T09:47:24.925Z,12.58
2018-07-06T09:48:24.999Z,12.58
2018-07-06T09:49:24.962Z,12.51
2018-07-06T09:50:24.928Z,12.45
2018-07-06T09:51:25.004Z,12.44
2018-07-06T09:52:25.023Z,12.46
2018-07-06T09:53:24.979Z,12.49
2018-07-06T09:54:24.957Z,12.37
2018-07-06T09:55:24.959Z,12.42
2018-07-06T09:56:25.016Z,12.21
2018-07-06T09:57:27.276Z,12.35
2018-07-06T09:58:24.921Z,12.49
2018-07-06T09:59:24.929Z,12.57
2018-07-06T10:00:24.956Z,12.66
2018-07-06T10:01:25.208Z,12.57
2018-07-06T10:02:24.977Z,12.52
2018-07-06T10:03:24.953Z,12.45
2018-07-06T10:04:26.439Z,12.4
2018-07-06T10:05:25.106Z,12.38
2018-07-06T10:06:24.964Z,12.24
2018-07-06T10:07:25.148Z,12.29
2018-07-06T10:08:26.090Z,12.39
2018-07-06T10:09:25.170Z,12.35
2018-07-06T10:10:25.086Z,12.26
2018-07-06T10:11:25.134Z,12.08
2018-07-06T10:12:25.112Z,12.2
2018-07-06T10:13:25.025Z,12.41
2018-07-06T10:14:25.323Z,12.06
2018-07-06T10:15:25.224Z,11.97
2018-07-06T10:16:25.105Z,11.97
2018-07-06T10:17:25.055Z,12.07
2018-07-06T10:18:25.330Z,12.11
2018-07-06T10:19:25.616Z,11.91
2018-07-06T10:20:25.241Z,11.95
2018-07-06T10:21:25.145Z,12.01
2018-07-06T10:22:25.084Z,12
2018-07-06T10:23:24.937Z,11.8
2018-07-06T10:24:25.074Z,11.68
2018-07-06T10:25:24.984Z,11.69
2018-07-06T10:26:26.000Z,11.74
2018-07-06T10:27:25.335Z,11.64
2018-07-06T10:28:25.190Z,11.65
2018-07-06T10:29:25.318Z,11.38
2018-07-06T10:30:25.210Z,11.4
2018-07-06T10:31:25.143Z,11.28
2018-07-06T10:32:25.327Z,11.35
2018-07-06T10:33:25.455Z,11.4
2018-07-06T10:34:25.266Z,11.32
2018-07-06T10:35:25.153Z,11.49
2018-07-06T10:36:25.062Z,11.45
2018-07-06T10:37:25.167Z,11.21
2018-07-06T10:38:25.168Z,11.22
2018-07-06T10:39:26.499Z,11.25
2018-07-06T10:40:25.086Z,11.41
2018-07-06T10:41:25.085Z,11.43
2018-07-06T10:42:25.109Z,11.3
2018-07-06T10:43:24.896Z,11.34
2018-07-06T10:44:25.011Z,11.53
2018-07-06T10:45:25.049Z,11.4
2018-07-06T10:46:25.121Z,11.17
2018-07-06T10:47:25.449Z,11.19
2018-07-06T10:48:24.948Z,11.32
2018-07-06T10:49:25.180Z,11.2
2018-07-06T10:50:25.021Z,11.35
2018-07-06T10:51:25.059Z,11.28
2018-07-06T10:52:25.089Z,11.3
2018-07-06T10:53:25.002Z,11.47
2018-07-06T10:54:25.215Z,11.58
2018-07-06T10:55:26.042Z,11.38
2018-07-06T10:56:24.908Z,11.49
2018-07-06T10:57:25.015Z,11.55
2018-07-06T10:58:25.054Z,11.42
2018-07-06T10:59:25.719Z,11.41
2018-07-06T11:00:25.020Z,11.5
2018-07-06T11:01:25.030Z,11.44
2018-07-06T11:02:25.047Z,11.55
2018-07-06T11:03:24.891Z,11.37
2018-07-06T11:04:25.158Z,11.12
2018-07-06T11:05:25.158Z,11.2
2018-07-06T11:06:24.913Z,11.12
2018-07-06T11:07:24.884Z,11.25
2018-07-06T11:08:25.993Z,11.27
2018-07-06T11:09:24.895Z,11.22
2018-07-06T11:10:25.025Z,11.14
2018-07-06T11:11:25.021Z,11.31
2018-07-06T11:12:24.982Z,11.4
2018-07-06T11:13:25.138Z,11.32
2018-07-06T11:14:24.912Z,11.29
2018-07-06T11:15:24.897Z,11.19
2018-07-06T11:16:25.227Z,11.19
2018-07-06T11:17:25.036Z,11.17
2018-07-06T11:18:24.931Z,10.99
2018-07-06T11:19:25.205Z,10.83
2018-07-06T11:20:25.195Z,10.84
2018-07-06T11:21:24.955Z,10.87
2018-07-06T11:22:25.173Z,10.99
2018-07-06T11:23:25.050Z,10.97
2018-07-06T11:24:25.329Z,10.87
2018-07-06T11:25:25.685Z,10.88
2018-07-06T11:26:25.135Z,10.95
2018-07-06T11:27:24.963Z,10.89
2018-07-06T11:28:25.321Z,10.87
2018-07-06T11:29:24.946Z,11.03
2018-07-06T11:30:25.065Z,11.13
2018-07-06T11:31:25.134Z,11.19
2018-07-06T11:32:24.906Z,11.29
2018-07-06T11:33:25.074Z,11.07
2018-07-06T11:34:25.157Z,11.01
2018-07-06T11:35:25.394Z,10.97
2018-07-06T11:36:24.945Z,11
2018-07-06T11:37:26.090Z,10.81
2018-07-06T11:38:25.105Z,10.9
2018-07-06T11:39:24.930Z,11.04
2018-07-06T11:40:25.093Z,11.07
2018-07-06T11:41:25.077Z,11
2018-07-06T11:42:25.081Z,11.03
2018-07-06T11:43:25.130Z,11.02
2018-07-06T11:44:25.142Z,11.02
2018-07-06T11:45:25.078Z,11.09
2018-07-06T11:46:25.035Z,11.04
2018-07-06T11:47:24.949Z,11.12
2018-07-06T11:48:24.883Z,11.09
2018-07-06T11:49:26.231Z,11.01
2018-07-06T11:50:25.434Z,11.07
2018-07-06T11:51:25.086Z,11.13
2018-07-06T11:52:25.081Z,11.11
2018-07-06T11:53:25.053Z,11.17
2018-07-06T11:54:24.971Z,11.13
2018-07-06T11:55:25.229Z,11.03
2018-07-06T11:56:25.609Z,11.07
2018-07-06T11:57:24.935Z,11.09
2018-07-06T11:58:25.240Z,11.01
2018-07-06T11:59:24.921Z,10.91
2018-07-06T12:00:25.040Z,11.01
2018-07-06T12:01:25.086Z,10.86
2018-07-06T12:02:25.032Z,10.82
2018-07-06T12:03:25.048Z,10.92
2018-07-06T12:04:26.080Z,10.86
2018-07-06T12:05:25.095Z,10.74
2018-07-06T12:06:25.117Z,10.81
2018-07-06T12:07:25.043Z,10.64
2018-07-06T12:08:25.095Z,10.76
2018-07-06T12:09:24.963Z,10.8
2018-07-06T12:10:25.001Z,10.5
2018-07-06T12:11:24.920Z,10.67
2018-07-06T12:12:24.914Z,10.65
2018-07-06T12:13:25.018Z,10.27
2018-07-06T12:14:24.882Z,10.26
2018-07-06T12:15:25.102Z,10.45
2018-07-06T12:16:24.943Z,10.47
2018-07-06T12:17:24.896Z,10.31
2018-07-06T12:18:24.933Z,10.25
2018-07-06T12:19:24.897Z,10.37
2018-07-06T12:20:24.903Z,10.28
2018-07-06T12:21:25.578Z,10.34
2018-07-06T12:22:24.927Z,10.36
2018-07-06T12:23:24.915Z,10.23
2018-07-06T12:24:25.103Z,10.37
2018-07-06T12:25:24.902Z,10.37
2018-07-06T12:26:24.929Z,10.26
2018-07-06T12:27:24.993Z,10.11
2018-07-06T12:28:24.945Z,10.27
2018-07-06T12:29:24.897Z,10.39
2018-07-06T12:30:25.084Z,10.55
2018-07-06T12:31:24.932Z,10.51
2018-07-06T12:32:24.900Z,10.48
2018-07-06T12:33:24.917Z,10.28
2018-07-06T12:34:25.052Z,10.41
2018-07-06T12:35:24.966Z,10.36
2018-07-06T12:36:25.132Z,10.35
2018-07-06T12:37:24.889Z,10.22
2018-07-06T12:38:25.013Z,10.15
2018-07-06T12:39:24.976Z,10.27
2018-07-06T12:40:25.231Z,10.3
2018-07-06T12:41:24.981Z,10.44
2018-07-06T12:42:24.909Z,10.34
2018-07-06T12:43:24.884Z,10.42
2018-07-06T12:44:25.074Z,10.36
2018-07-06T12:45:25.575Z,10.24
2018-07-06T12:46:24.894Z,10.38
2018-07-06T12:47:25.183Z,10.42
2018-07-06T12:48:25.034Z,10.21
2018-07-06T12:49:25.080Z,10.31
2018-07-06T12:50:25.046Z,10.43
2018-07-06T12:51:25.161Z,10.48
2018-07-06T12:52:25.643Z,10.24
2018-07-06T12:53:25.146Z,10.41
2018-07-06T12:54:24.953Z,10.61
2018-07-06T12:55:26.024Z,10.55